Time;durP1;ratioP1;P1;durP2;ratioP2;P2;SDS_P1;SDS_P2;PMS_P1;PMS_P2;Temp;Humidity;BMP_temperature;BMP_pressure;BME280_temperature;BME280_humidity;BME280_pressure;Samples;Min_cycle;Max_cycle;Signal;HPM_P1;HPM_P2
2022/01/20 00:03:31;;;;;;;4.40;2.40;;;3.20;99.90;;;;;;5014267;28;20022;-74
2022/01/20 00:27:55;;;;;;;3.60;0.85;;;3.10;99.90;;;;;;5013664;28;20029;-74
2022/01/20 00:30:39;;;;;;;3.35;2.22;;;3.10;99.90;;;;;;5013811;28;20017;-74
2022/01/20 00:38:16;;;;;;;0.38;0.35;;;3.00;99.90;;;;;;5012376;28;20030;-74
2022/01/20 00:40:42;;;;;;;0.60;0.60;;;3.10;99.90;;;;;;5013356;28;20104;-74
2022/01/20 00:43:07;;;;;;;0.60;0.60;;;3.20;99.90;;;;;;5013447;28;20101;-74
2022/01/20 00:45:33;;;;;;;0.85;0.85;;;3.20;99.90;;;;;;5012090;28;20025;-73
2022/01/20 00:47:59;;;;;;;7.47;2.47;;;3.20;99.90;;;;;;5013561;28;20093;-74
2022/01/20 00:50:25;;;;;;;1.98;1.25;;;3.00;99.90;;;;;;5012136;28;20021;-73
2022/01/20 00:52:51;;;;;;;1.58;1.23;;;3.00;99.90;;;;;;5012050;28;20018;-74
2022/01/20 00:55:18;;;;;;;3.88;1.85;;;3.00;99.90;;;;;;5013167;28;20489;-73
2022/01/20 00:57:43;;;;;;;3.47;1.25;;;2.90;99.90;;;;;;5011779;28;20105;-74
2022/01/20 01:00:12;;;;;;;4.25;2.22;;;2.80;99.90;;;;;;5012040;28;20644;-73
2022/01/20 01:02:38;;;;;;;1.30;1.17;;;2.80;99.90;;;;;;5011610;28;20038;-74
2022/01/20 01:05:05;;;;;;;1.23;0.85;;;2.80;99.90;;;;;;5012324;28;20032;-73
2022/01/20 01:10:06;;;;;;;5.07;2.47;;;2.90;99.90;;;;;;5013015;28;20030;-73
2022/01/20 01:12:40;;;;;;;7.82;3.53;;;2.80;99.90;;;;;;5012913;28;20032;-74
2022/01/20 01:15:13;;;;;;;1.38;0.60;;;2.70;99.90;;;;;;5011821;28;20049;-73
2022/01/20 01:20:25;;;;;;;2.00;1.85;;;2.80;99.90;;;;;;5012682;28;20030;-74
2022/01/20 01:22:51;;;;;;;2.70;1.10;;;2.70;99.90;;;;;;5011489;28;20466;-74
2022/01/20 01:25:17;;;;;;;5.25;3.00;;;2.80;99.90;;;;;;5012769;28;20026;-73
2022/01/20 01:27:45;;;;;;;1.60;1.40;;;2.80;99.90;;;;;;5011427;28;20029;-74
2022/01/20 01:30:42;;;;;;;0.40;0.40;;;2.80;99.90;;;;;;5012822;28;20493;-74
2022/01/20 01:33:08;;;;;;;4.10;2.28;;;2.80;99.90;;;;;;5011202;28;20061;-73
2022/01/20 01:35:38;;;;;;;1.17;0.60;;;2.80;99.90;;;;;;5011243;28;20026;-73
2022/01/20 01:40:31;;;;;;;1.13;0.88;;;2.90;99.90;;;;;;5012512;28;20034;-74
2022/01/20 01:42:58;;;;;;;0.50;0.50;;;2.90;99.90;;;;;;5011040;28;20504;-73
2022/01/20 01:45:35;;;;;;;4.15;1.50;;;2.90;99.90;;;;;;5012384;28;20028;-73
2022/01/20 01:48:03;;;;;;;0.30;0.30;;;2.90;99.90;;;;;;5011206;28;20021;-74
2022/01/20 01:50:29;;;;;;;1.65;1.55;;;3.00;99.90;;;;;;5012299;28;20022;-74
2022/01/20 01:52:56;;;;;;;0.75;0.75;;;3.10;99.90;;;;;;5012300;28;20034;-74
2022/01/20 01:55:23;;;;;;;1.40;1.13;;;3.00;99.90;;;;;;5011090;28;20080;-73
2022/01/20 01:57:49;;;;;;;0.63;0.63;;;3.00;99.90;;;;;;5012094;28;20022;-74
2022/01/20 02:00:16;;;;;;;2.45;1.02;;;3.10;99.90;;;;;;5010886;28;20033;-74
2022/01/20 02:02:43;;;;;;;1.08;0.70;;;3.00;99.90;;;;;;5011958;28;20324;-74
2022/01/20 02:05:15;;;;;;;0.30;0.30;;;3.10;99.90;;;;;;5010840;28;20084;-73
2022/01/20 02:18:48;;;;;;;3.58;1.25;;;2.90;99.90;;;;;;5018572;28;20025;-73
2022/01/20 02:21:15;;;;;;;4.28;3.20;;;3.00;99.90;;;;;;5018425;28;20022;-73
2022/01/20 02:23:41;;;;;;;0.63;0.63;;;3.00;99.90;;;;;;5018649;28;20026;-74
2022/01/20 02:26:07;;;;;;;1.17;1.00;;;3.00;99.90;;;;;;5017250;28;20099;-73
2022/01/20 02:28:33;;;;;;;1.45;1.08;;;2.90;99.90;;;;;;5018650;28;20093;-73
2022/01/20 02:30:59;;;;;;;1.52;1.13;;;2.90;99.90;;;;;;5018463;28;20504;-73
2022/01/20 02:33:27;;;;;;;0.68;0.65;;;3.00;99.90;;;;;;5018369;28;20520;-73
2022/01/20 02:36:04;;;;;;;2.08;1.27;;;3.00;99.90;;;;;;5017033;28;20374;-73
2022/01/20 02:38:41;;;;;;;3.85;1.38;;;2.90;99.90;;;;;;5018379;28;20034;-74
2022/01/20 02:46:37;;;;;;;4.47;1.25;;;3.00;99.90;;;;;;5018600;28;20105;-74
2022/01/20 02:49:04;;;;;;;1.88;1.23;;;3.00;99.90;;;;;;5018466;28;20049;-73
2022/01/20 02:51:31;;;;;;;1.80;1.65;;;3.00;99.90;;;;;;5018875;28;20060;-73
2022/01/20 02:53:56;;;;;;;2.40;1.63;;;3.00;99.90;;;;;;5018307;28;20485;-73
2022/01/20 02:56:22;;;;;;;1.02;0.88;;;3.00;99.90;;;;;;5018252;28;20028;-74
2022/01/20 02:58:48;;;;;;;0.30;0.30;;;3.10;99.90;;;;;;5018241;28;20101;-73
2022/01/20 03:01:14;;;;;;;1.67;1.58;;;3.00;99.90;;;;;;5018001;28;20072;-73
2022/01/20 03:03:40;;;;;;;0.77;0.70;;;3.00;99.90;;;;;;5018008;28;20037;-74
2022/01/20 03:06:06;;;;;;;0.60;0.60;;;2.90;99.90;;;;;;5016748;28;20111;-73
2022/01/20 03:08:33;;;;;;;2.63;1.63;;;2.80;99.90;;;;;;5018123;28;20029;-74
2022/01/20 03:10:59;;;;;;;1.58;1.33;;;2.80;99.90;;;;;;5000525;28;20124;-74
2022/01/20 03:13:25;;;;;;;1.92;1.50;;;2.80;99.90;;;;;;5018096;28;20064;-73
2022/01/20 03:15:51;;;;;;;0.63;0.63;;;2.70;99.90;;;;;;5018026;28;20500;-73
2022/01/20 03:18:17;;;;;;;2.08;1.25;;;2.70;99.90;;;;;;5016692;28;20026;-73
2022/01/20 03:20:42;;;;;;;0.77;0.77;;;2.60;99.90;;;;;;5018014;28;20100;-73
2022/01/20 03:23:08;;;;;;;2.85;1.35;;;2.70;99.90;;;;;;5017909;28;20026;-73
2022/01/20 03:25:34;;;;;;;4.07;2.30;;;2.60;99.90;;;;;;5017965;28;20439;-73
2022/01/20 03:27:59;;;;;;;2.47;1.60;;;2.50;99.90;;;;;;5014326;28;20037;-74
2022/01/20 03:30:26;;;;;;;0.50;0.45;;;2.50;99.90;;;;;;5013605;28;20452;-73
2022/01/20 03:32:52;;;;;;;4.38;2.78;;;2.50;99.90;;;;;;5013332;28;20026;-74
2022/01/20 03:35:18;;;;;;;0.30;0.30;;;2.30;99.90;;;;;;5014794;28;20048;-73
2022/01/20 03:37:44;;;;;;;2.63;1.58;;;2.30;99.90;;;;;;5013181;28;20022;-73
2022/01/20 03:40:11;;;;;;;2.40;1.23;;;2.20;99.90;;;;;;5013703;28;20057;-74
2022/01/20 03:42:37;;;;;;;2.85;1.45;;;2.20;99.90;;;;;;5014551;28;20083;-73
2022/01/20 03:45:04;;;;;;;0.40;0.40;;;2.10;99.90;;;;;;5013460;28;20026;-73
2022/01/20 03:47:30;;;;;;;1.17;0.63;;;2.10;99.90;;;;;;5014370;28;20402;-74
2022/01/20 03:52:25;;;;;;;0.68;0.68;;;2.20;99.90;;;;;;5013114;28;20056;-74
2022/01/20 03:54:50;;;;;;;5.32;3.38;;;2.20;99.90;;;;;;5013327;28;20433;-74
2022/01/20 03:57:17;;;;;;;0.35;0.35;;;2.20;99.90;;;;;;5014252;28;20030;-73
2022/01/20 03:59:44;;;;;;;1.85;1.20;;;2.30;99.90;;;;;;5014389;28;20022;-73
2022/01/20 04:02:10;;;;;;;1.90;0.52;;;2.20;99.90;;;;;;5014043;28;20033;-73
2022/01/20 04:04:36;;;;;;;4.70;1.70;;;2.10;99.90;;;;;;5012982;28;20366;-73
2022/01/20 04:07:03;;;;;;;0.47;0.45;;;2.10;99.90;;;;;;4996543;28;20025;-74
2022/01/20 04:09:30;;;;;;;3.85;1.85;;;2.20;99.90;;;;;;5014179;28;20026;-73
2022/01/20 04:11:55;;;;;;;1.08;0.98;;;2.30;99.90;;;;;;4996450;28;20375;-73
2022/01/20 04:14:23;;;;;;;1.30;1.08;;;2.10;99.90;;;;;;5012837;28;20029;-73
2022/01/20 04:17:03;;;;;;;0.75;0.75;;;2.10;99.90;;;;;;5012551;28;20033;-73
2022/01/20 04:19:30;;;;;;;1.50;1.38;;;2.10;99.90;;;;;;5013951;28;20026;-73
2022/01/20 04:21:57;;;;;;;7.65;2.38;;;2.20;99.90;;;;;;5013844;28;20044;-73
2022/01/20 04:24:23;;;;;;;3.60;1.60;;;2.20;99.90;;;;;;5013918;28;20026;-73
2022/01/20 04:26:49;;;;;;;0.50;0.50;;;2.20;99.90;;;;;;5012518;28;20469;-73
2022/01/20 04:29:16;;;;;;;0.30;0.30;;;2.40;99.90;;;;;;5012687;28;20501;-74
2022/01/20 04:31:44;;;;;;;5.80;3.30;;;2.40;99.90;;;;;;5012663;28;20030;-74
2022/01/20 04:34:10;;;;;;;0.28;0.28;;;2.40;99.90;;;;;;5012491;28;20022;-75
2022/01/20 04:36:40;;;;;;;6.47;2.15;;;2.40;99.90;;;;;;5012350;28;20073;-75
2022/01/20 04:39:09;;;;;;;0.43;0.43;;;2.40;99.90;;;;;;5012177;28;20037;-74
2022/01/20 04:41:36;;;;;;;0.95;0.90;;;2.40;99.90;;;;;;5012009;28;20037;-74
2022/01/20 04:44:06;;;;;;;0.70;0.70;;;2.30;99.90;;;;;;5013571;28;20018;-74
2022/01/20 04:56:59;;;;;;;1.30;1.05;;;2.30;99.90;;;;;;5013492;28;20052;-74
2022/01/20 04:57:19;;;;;;;1.95;1.42;;;2.40;99.90;;;;;;5013122;28;20028;-74
2022/01/20 04:59:47;;;;;;;1.98;1.75;;;2.30;99.90;;;;;;5013263;28;20057;-74
2022/01/20 05:02:12;;;;;;;1.42;1.17;;;2.20;99.90;;;;;;5012944;28;20498;-74
2022/01/20 05:04:39;;;;;;;1.42;1.35;;;2.20;99.90;;;;;;5013205;28;20037;-74
2022/01/20 05:07:06;;;;;;;1.63;1.48;;;2.10;99.90;;;;;;5012899;28;20022;-74
2022/01/20 05:09:32;;;;;;;2.38;1.15;;;2.10;99.90;;;;;;5012993;28;20055;-74
2022/01/20 05:12:01;;;;;;;0.45;0.45;;;2.10;99.90;;;;;;5012832;28;20129;-75
2022/01/20 05:14:28;;;;;;;1.55;1.45;;;2.20;99.90;;;;;;5011715;28;20390;-74
2022/01/20 05:16:55;;;;;;;7.45;2.08;;;2.20;99.90;;;;;;5012829;28;20036;-74
2022/01/20 05:19:29;;;;;;;0.85;0.85;;;2.10;99.90;;;;;;5011612;28;20022;-74
2022/01/20 05:21:55;;;;;;;1.27;1.23;;;2.00;99.90;;;;;;5012549;28;20087;-74
2022/01/20 05:24:23;;;;;;;2.53;1.88;;;1.90;99.90;;;;;;5012838;28;20014;-74
2022/01/20 05:26:54;;;;;;;2.70;2.05;;;1.80;99.90;;;;;;5012504;28;20018;-75
2022/01/20 05:29:20;;;;;;;0.50;0.50;;;1.80;99.90;;;;;;5011609;28;20589;-74
2022/01/20 05:31:47;;;;;;;3.92;2.03;;;1.70;99.90;;;;;;5011251;28;20113;-75
2022/01/20 05:34:13;;;;;;;0.30;0.30;;;1.70;99.90;;;;;;5011298;28;20072;-75
2022/01/20 05:36:39;;;;;;;2.05;1.63;;;1.80;99.90;;;;;;5011288;28;20551;-74
2022/01/20 05:39:05;;;;;;;1.58;1.48;;;1.80;99.90;;;;;;5012637;28;20030;-74
2022/01/20 05:41:32;;;;;;;0.90;0.90;;;1.80;99.90;;;;;;5012750;28;20494;-74
2022/01/20 05:43:57;;;;;;;0.98;0.98;;;1.80;99.90;;;;;;5012369;28;20026;-74
2022/01/20 05:46:34;;;;;;;0.30;0.30;;;1.90;99.90;;;;;;5010957;28;20076;-74
2022/01/20 05:49:08;;;;;;;2.95;1.77;;;2.00;99.90;;;;;;5011185;28;20101;-75
2022/01/20 05:51:36;;;;;;;2.92;1.48;;;2.00;99.90;;;;;;4994213;28;20053;-74
2022/01/20 05:54:02;;;;;;;0.60;0.60;;;1.80;99.90;;;;;;5011046;28;20113;-74
2022/01/20 05:56:28;;;;;;;0.85;0.38;;;1.80;99.90;;;;;;5011000;28;20029;-74
2022/01/20 05:58:54;;;;;;;1.10;0.95;;;1.90;99.90;;;;;;5010900;28;20040;-74
2022/01/20 06:01:19;;;;;;;2.70;1.85;;;1.80;99.90;;;;;;5010792;28;20718;-74
2022/01/20 06:03:45;;;;;;;4.00;2.55;;;1.80;99.90;;;;;;5012057;28;20041;-74
2022/01/20 06:06:12;;;;;;;0.50;0.50;;;1.60;99.90;;;;;;5012074;28;20078;-74
2022/01/20 06:08:39;;;;;;;2.22;2.03;;;1.60;99.90;;;;;;5012143;28;20064;-74
2022/01/20 06:11:05;;;;;;;2.75;2.05;;;1.60;99.90;;;;;;5012032;28;20022;-74
2022/01/20 06:13:31;;;;;;;4.05;2.83;;;1.60;99.90;;;;;;5012039;28;20520;-74
2022/01/20 06:15:57;;;;;;;1.80;1.33;;;1.60;99.90;;;;;;5011837;28;20029;-74
2022/01/20 06:18:24;;;;;;;0.50;0.50;;;1.60;99.90;;;;;;4994456;28;20121;-74
2022/01/20 06:20:50;;;;;;;0.60;0.60;;;1.70;99.90;;;;;;5012032;28;20502;-74
2022/01/20 06:23:17;;;;;;;1.73;1.38;;;1.70;99.90;;;;;;5010559;28;20033;-74
2022/01/20 06:25:43;;;;;;;5.07;1.08;;;1.60;99.90;;;;;;5010556;28;20478;-74
2022/01/20 06:28:09;;;;;;;3.50;1.23;;;1.60;99.90;;;;;;5010684;28;20025;-74
2022/01/20 06:30:35;;;;;;;4.82;2.38;;;1.70;99.90;;;;;;5009392;28;20041;-74
2022/01/20 06:33:02;;;;;;;0.50;0.50;;;1.80;99.90;;;;;;5009297;28;20492;-75
2022/01/20 06:35:28;;;;;;;1.85;1.60;;;1.80;99.90;;;;;;5011110;28;20022;-74
2022/01/20 06:37:54;;;;;;;3.15;1.98;;;1.90;99.90;;;;;;5020388;28;20022;-74
2022/01/20 06:40:20;;;;;;;2.33;1.92;;;1.90;99.90;;;;;;5010772;28;20021;-74
2022/01/20 06:42:46;;;;;;;2.90;1.45;;;1.80;99.90;;;;;;5019061;28;20032;-74
2022/01/20 06:45:14;;;;;;;0.30;0.30;;;1.80;99.90;;;;;;5011795;28;20397;-74
2022/01/20 06:47:40;;;;;;;1.75;1.23;;;1.90;99.90;;;;;;5011293;28;20552;-74
2022/01/20 06:50:08;;;;;;;2.10;1.77;;;1.90;99.90;;;;;;5010060;28;20034;-74
2022/01/20 06:52:34;;;;;;;1.23;0.77;;;1.80;99.90;;;;;;5015334;28;20060;-74
2022/01/20 06:55:05;;;;;;;0.82;0.82;;;1.80;99.90;;;;;;5031566;28;20029;-74
2022/01/20 06:57:31;;;;;;;2.75;1.63;;;1.80;99.90;;;;;;5021488;28;20053;-74
2022/01/20 06:59:57;;;;;;;3.70;2.15;;;1.80;99.90;;;;;;5009925;28;20100;-74
2022/01/20 07:02:23;;;;;;;0.82;0.82;;;1.70;99.90;;;;;;5012300;28;20026;-74
2022/01/20 07:04:50;;;;;;;1.58;1.48;;;1.70;99.90;;;;;;5013858;28;20068;-74
2022/01/20 07:07:16;;;;;;;0.73;0.73;;;1.60;99.90;;;;;;5013362;28;20071;-74
2022/01/20 07:09:42;;;;;;;14.40;1.67;;;1.70;99.90;;;;;;5013752;28;20029;-74
2022/01/20 07:12:09;;;;;;;0.85;0.85;;;1.70;99.90;;;;;;5014865;28;20037;-74
2022/01/20 07:14:35;;;;;;;0.82;0.82;;;1.70;99.90;;;;;;5021449;28;20107;-74
2022/01/20 07:17:01;;;;;;;2.40;2.03;;;1.70;99.90;;;;;;5000866;28;20025;-74
2022/01/20 07:19:27;;;;;;;0.82;0.80;;;1.60;99.90;;;;;;5013677;28;20478;-74
2022/01/20 07:21:53;;;;;;;0.47;0.47;;;1.60;99.90;;;;;;5013543;28;20018;-75
2022/01/20 07:24:18;;;;;;;0.50;0.50;;;1.60;99.90;;;;;;5014661;28;20439;-75
2022/01/20 07:26:44;;;;;;;1.50;1.15;;;1.70;99.90;;;;;;5015142;28;20010;-75
2022/01/20 07:29:10;;;;;;;1.20;1.02;;;1.70;99.90;;;;;;5025368;28;20432;-74
2022/01/20 07:31:36;;;;;;;0.93;0.85;;;1.80;99.90;;;;;;5024840;28;20478;-75
2022/01/20 07:34:02;;;;;;;17.17;0.90;;;1.80;99.90;;;;;;5014594;28;20025;-74
2022/01/20 07:36:28;;;;;;;1.85;0.50;;;1.80;99.90;;;;;;5027403;28;20021;-74
2022/01/20 07:38:53;;;;;;;0.70;0.40;;;1.70;99.90;;;;;;5034678;28;20428;-74
2022/01/20 07:41:19;;;;;;;0.77;0.77;;;1.80;99.90;;;;;;5034014;28;20056;-74
2022/01/20 07:43:45;;;;;;;1.10;1.00;;;1.80;99.90;;;;;;5029709;28;20025;-74
2022/01/20 07:46:11;;;;;;;3.03;0.73;;;1.80;99.90;;;;;;5012879;28;20496;-75
2022/01/20 07:48:37;;;;;;;0.40;0.40;;;1.80;99.90;;;;;;5012327;28;20026;-74
2022/01/20 07:51:05;;;;;;;0.88;0.88;;;1.90;99.90;;;;;;5012643;28;20022;-74
2022/01/20 07:53:33;;;;;;;1.05;0.95;;;2.00;99.90;;;;;;5011148;28;20032;-74
2022/01/20 07:55:59;;;;;;;0.30;0.30;;;2.00;99.90;;;;;;5012184;28;20046;-75
2022/01/20 07:58:25;;;;;;;1.02;0.98;;;1.90;99.90;;;;;;5012064;28;20033;-74
2022/01/20 08:00:50;;;;;;;0.85;0.50;;;2.00;99.90;;;;;;5009651;28;20029;-75
2022/01/20 08:03:16;;;;;;;1.05;0.95;;;2.00;99.90;;;;;;5011438;28;20041;-74
2022/01/20 08:05:42;;;;;;;0.63;0.63;;;2.00;99.90;;;;;;5013154;28;20018;-74
2022/01/20 08:08:08;;;;;;;0.93;0.85;;;2.00;99.90;;;;;;5013893;28;20386;-74
2022/01/20 08:10:35;;;;;;;1.20;0.60;;;1.90;99.90;;;;;;5011733;28;20026;-74
2022/01/20 08:13:02;;;;;;;0.93;0.82;;;2.10;99.90;;;;;;5013383;28;20034;-74
2022/01/20 08:15:28;;;;;;;0.85;0.77;;;2.10;99.90;;;;;;5011712;28;20033;-74
2022/01/20 08:17:54;;;;;;;0.30;0.30;;;2.00;99.90;;;;;;5013708;28;20021;-74
2022/01/20 08:20:20;;;;;;;0.75;0.75;;;2.10;99.90;;;;;;5011692;28;20393;-74
2022/01/20 08:22:46;;;;;;;0.55;0.55;;;2.10;99.90;;;;;;5013899;28;20026;-74
2022/01/20 08:25:14;;;;;;;0.43;0.43;;;2.10;99.90;;;;;;4995297;28;20026;-74
2022/01/20 08:27:42;;;;;;;1.25;0.82;;;2.10;99.90;;;;;;5012189;28;20026;-74
2022/01/20 08:30:10;;;;;;;1.00;0.95;;;2.10;99.90;;;;;;5012536;28;20059;-75
2022/01/20 08:32:36;;;;;;;0.45;0.45;;;2.20;99.90;;;;;;5011336;28;20026;-75
2022/01/20 08:35:06;;;;;;;0.50;0.50;;;2.00;99.90;;;;;;4994389;28;20084;-74
2022/01/20 08:37:37;;;;;;;0.30;0.30;;;2.10;99.90;;;;;;5011644;28;20531;-74
2022/01/20 08:40:05;;;;;;;0.28;0.28;;;2.20;99.90;;;;;;5012619;28;20112;-74
2022/01/20 08:42:32;;;;;;;0.80;0.80;;;2.10;99.90;;;;;;4994164;28;20547;-75
2022/01/20 08:44:59;;;;;;;0.32;0.32;;;2.20;99.90;;;;;;5011656;28;20085;-74
2022/01/20 08:47:26;;;;;;;0.45;0.45;;;2.20;99.90;;;;;;5010206;28;20505;-75
2022/01/20 08:49:52;;;;;;;0.50;0.50;;;2.20;99.90;;;;;;5010936;28;20026;-75
2022/01/20 08:52:19;;;;;;;0.50;0.50;;;2.20;99.90;;;;;;5010526;28;20026;-75
2022/01/20 08:54:47;;;;;;;0.40;0.40;;;2.20;99.90;;;;;;5012156;28;20022;-75
2022/01/20 08:57:13;;;;;;;1.30;1.00;;;2.20;99.90;;;;;;5010272;28;20034;-75
2022/01/20 08:59:42;;;;;;;2.80;1.08;;;2.30;99.90;;;;;;4994489;28;20025;-74
2022/01/20 09:02:09;;;;;;;0.60;0.60;;;2.20;99.90;;;;;;5011435;28;20049;-75
2022/01/20 09:04:35;;;;;;;0.30;0.30;;;2.30;99.90;;;;;;5010822;28;20524;-74
2022/01/20 09:07:01;;;;;;;0.45;0.45;;;2.40;99.90;;;;;;5010120;28;20112;-74
2022/01/20 09:09:26;;;;;;;0.32;0.32;;;2.40;99.90;;;;;;5011728;28;20458;-75
2022/01/20 09:12:17;;;;;;;0.47;0.47;;;2.40;99.90;;;;;;5011248;28;20033;-74
2022/01/20 09:17:31;;;;;;;0.30;0.30;;;2.30;99.90;;;;;;5008055;28;20040;-75
2022/01/20 09:19:58;;;;;;;0.95;0.95;;;2.30;99.90;;;;;;5011626;28;20109;-74
2022/01/20 09:22:26;;;;;;;0.73;0.73;;;2.40;99.90;;;;;;5009400;28;20068;-74
2022/01/20 09:24:52;;;;;;;0.35;0.35;;;2.40;99.90;;;;;;5009576;28;20465;-74
2022/01/20 09:27:18;;;;;;;0.30;0.30;;;2.50;99.90;;;;;;5010978;28;20037;-74
2022/01/20 09:29:45;;;;;;;0.50;0.50;;;2.50;99.90;;;;;;5011821;28;20026;-74
2022/01/20 09:32:13;;;;;;;0.30;0.30;;;2.60;99.90;;;;;;5011006;28;20022;-74
2022/01/20 09:34:40;;;;;;;2.90;1.10;;;2.40;99.90;;;;;;5011487;28;20474;-73
2022/01/20 09:37:06;;;;;;;0.28;0.28;;;2.40;99.90;;;;;;5010874;28;20048;-74
2022/01/20 09:39:31;;;;;;;0.75;0.75;;;2.40;99.90;;;;;;5010091;28;20545;-74
2022/01/20 09:41:58;;;;;;;0.47;0.47;;;2.30;99.90;;;;;;5010932;28;20072;-74
2022/01/20 09:44:25;;;;;;;0.75;0.50;;;2.20;99.90;;;;;;5010272;28;20398;-74
2022/01/20 09:46:51;;;;;;;0.90;0.90;;;2.20;99.90;;;;;;5010966;28;20025;-74
2022/01/20 09:49:17;;;;;;;0.40;0.40;;;2.30;99.90;;;;;;5011314;28;20022;-74
2022/01/20 09:51:43;;;;;;;0.40;0.40;;;2.30;99.90;;;;;;5011138;28;20029;-74
2022/01/20 09:54:10;;;;;;;2.38;1.40;;;2.40;99.90;;;;;;5010490;28;20027;-74
2022/01/20 09:56:36;;;;;;;0.35;0.35;;;2.30;99.90;;;;;;5010965;28;20569;-73
2022/01/20 09:59:03;;;;;;;0.30;0.30;;;2.30;99.90;;;;;;5009963;28;20045;-74
2022/01/20 10:01:42;;;;;;;0.65;0.65;;;2.20;99.90;;;;;;4993616;28;20360;-74
2022/01/20 10:04:41;;;;;;;4.43;2.05;;;2.20;99.90;;;;;;5007849;28;20025;-74
2022/01/20 10:07:13;;;;;;;1.67;0.98;;;2.20;99.90;;;;;;4984867;28;20042;-74
2022/01/20 10:09:49;;;;;;;2.28;1.70;;;2.20;99.90;;;;;;5009817;28;20520;-74
2022/01/20 10:12:17;;;;;;;0.38;0.38;;;2.20;99.90;;;;;;5007188;28;20068;-74
2022/01/20 10:14:49;;;;;;;0.95;0.60;;;2.20;99.90;;;;;;5011174;28;20117;-74
2022/01/20 10:17:29;;;;;;;0.50;0.50;;;2.20;99.90;;;;;;5009254;28;20033;-74
2022/01/20 10:20:00;;;;;;;0.40;0.40;;;2.20;99.90;;;;;;5007964;28;20038;-74
2022/01/20 10:22:27;;;;;;;1.53;1.20;;;2.20;99.90;;;;;;5009042;28;20100;-74
2022/01/20 10:25:12;;;;;;;1.35;1.17;;;2.30;99.90;;;;;;5011023;28;20700;-74
2022/01/20 10:27:52;;;;;;;1.17;0.93;;;2.30;99.90;;;;;;5006803;28;20089;-74
2022/01/20 10:30:20;;;;;;;0.95;0.95;;;2.20;99.90;;;;;;5006735;28;20030;-74
2022/01/20 10:32:48;;;;;;;1.67;1.58;;;2.30;99.90;;;;;;5010472;28;20113;-74
2022/01/20 10:35:17;;;;;;;0.30;0.30;;;2.30;99.90;;;;;;5010688;28;20041;-75
2022/01/20 10:38:15;;;;;;;0.30;0.30;;;2.30;99.90;;;;;;4996351;28;20449;-74
2022/01/20 10:40:46;;;;;;;0.75;0.75;;;2.40;99.90;;;;;;5013508;28;20041;-74
2022/01/20 10:43:22;;;;;;;0.60;0.60;;;2.50;99.90;;;;;;5008626;28;20552;-74
2022/01/20 10:45:48;;;;;;;0.50;0.50;;;2.60;99.90;;;;;;5014241;28;20092;-74
2022/01/20 10:48:18;;;;;;;0.30;0.30;;;2.50;99.90;;;;;;5014313;28;20433;-74
2022/01/20 10:50:44;;;;;;;1.15;1.05;;;2.40;99.90;;;;;;5013263;28;20024;-74
2022/01/20 10:53:23;;;;;;;2.45;1.95;;;2.50;99.90;;;;;;5012878;28;20400;-74
2022/01/20 10:55:49;;;;;;;0.30;0.30;;;2.60;99.90;;;;;;5013886;28;20041;-75
2022/01/20 10:58:22;;;;;;;0.22;0.22;;;2.70;99.90;;;;;;5014218;28;20022;-75
2022/01/20 11:00:50;;;;;;;0.75;0.75;;;2.80;99.90;;;;;;5010686;28;20386;-75
2022/01/20 11:03:17;;;;;;;4.47;1.88;;;2.70;99.90;;;;;;5012536;28;20129;-74
2022/01/20 11:05:48;;;;;;;0.93;0.73;;;2.80;99.90;;;;;;5014264;28;20018;-74
2022/01/20 11:08:14;;;;;;;0.50;0.50;;;2.80;99.90;;;;;;5012544;28;20022;-74
2022/01/20 11:10:42;;;;;;;0.65;0.63;;;2.60;99.90;;;;;;5014565;28;20113;-74
2022/01/20 11:13:12;;;;;;;6.03;0.80;;;2.50;99.90;;;;;;5012641;28;20050;-74
2022/01/20 11:15:40;;;;;;;1.75;0.95;;;2.40;99.90;;;;;;5013964;28;20100;-74
2022/01/20 11:18:08;;;;;;;0.25;0.25;;;2.40;99.90;;;;;;4996286;28;20072;-74
2022/01/20 11:20:43;;;;;;;1.52;1.25;;;2.50;99.90;;;;;;5013822;28;20030;-74
2022/01/20 11:23:09;;;;;;;0.90;0.77;;;2.50;99.90;;;;;;5012026;28;20018;-74
2022/01/20 11:25:39;;;;;;;1.83;1.30;;;2.40;99.90;;;;;;5012680;28;20022;-74
2022/01/20 11:28:23;;;;;;;2.17;1.10;;;2.60;99.90;;;;;;5011588;28;20029;-74
2022/01/20 11:31:04;;;;;;;1.30;1.20;;;2.70;99.90;;;;;;5011525;28;20056;-73
2022/01/20 11:33:40;;;;;;;10.13;6.97;;;2.80;99.90;;;;;;4996161;28;20061;-74
2022/01/20 11:36:09;;;;;;;0.30;0.30;;;2.80;99.90;;;;;;5013876;28;20042;-74
2022/01/20 11:38:45;;;;;;;0.88;0.68;;;2.80;99.90;;;;;;5013646;28;20028;-74
2022/01/20 11:41:17;;;;;;;3.13;1.25;;;2.90;99.90;;;;;;5009849;28;20030;-74
2022/01/20 11:43:51;;;;;;;3.45;2.05;;;2.90;99.90;;;;;;5013545;28;20465;-74
2022/01/20 11:46:22;;;;;;;1.23;1.23;;;2.80;99.90;;;;;;5013323;28;20546;-73
2022/01/20 11:48:53;;;;;;;1.85;1.75;;;2.80;99.90;;;;;;4994760;28;20092;-74
2022/01/20 11:51:20;;;;;;;3.30;3.00;;;2.90;99.90;;;;;;4995642;28;20439;-74
2022/01/20 11:54:04;;;;;;;5.03;1.80;;;2.80;99.90;;;;;;5011514;28;20053;-74
2022/01/20 11:56:33;;;;;;;3.50;1.55;;;3.00;99.90;;;;;;5008640;28;20061;-73
2022/01/20 11:58:59;;;;;;;0.38;0.38;;;3.10;99.90;;;;;;5011395;28;20026;-74
2022/01/20 12:01:27;;;;;;;0.85;0.75;;;3.50;99.90;;;;;;5011553;28;20034;-73
2022/01/20 12:03:54;;;;;;;0.63;0.45;;;3.80;99.90;;;;;;4994727;28;20033;-73
2022/01/20 12:06:24;;;;;;;0.77;0.77;;;4.00;99.90;;;;;;5012754;28;20428;-74
2022/01/20 12:09:02;;;;;;;0.43;0.43;;;4.30;99.90;;;;;;5012764;28;20022;-73
2022/01/20 12:11:42;;;;;;;0.30;0.30;;;4.50;99.90;;;;;;5008453;28;20043;-73
2022/01/20 12:14:09;;;;;;;0.47;0.47;;;4.10;99.90;;;;;;5012287;28;20482;-74
2022/01/20 12:16:36;;;;;;;0.50;0.43;;;4.90;99.90;;;;;;5011848;28;20026;-74
2022/01/20 12:19:05;;;;;;;2.03;0.63;;;5.30;99.90;;;;;;5010706;28;20038;-74
2022/01/20 12:21:31;;;;;;;0.38;0.38;;;5.30;99.90;;;;;;5011363;28;20120;-74
2022/01/20 12:23:58;;;;;;;1.23;1.10;;;5.30;99.90;;;;;;5012271;28;20441;-73
2022/01/20 12:26:24;;;;;;;0.30;0.30;;;5.20;99.90;;;;;;5012668;28;20444;-74
2022/01/20 12:29:07;;;;;;;0.68;0.68;;;4.90;99.90;;;;;;5012585;28;20068;-74
2022/01/20 12:31:53;;;;;;;1.60;1.50;;;4.50;99.90;;;;;;5009421;28;20363;-73
2022/01/20 12:34:19;;;;;;;1.73;1.15;;;4.20;99.90;;;;;;5007664;28;20034;-74
2022/01/20 12:36:56;;;;;;;1.17;1.15;;;4.60;99.90;;;;;;4994787;28;20036;-73
2022/01/20 12:39:28;;;;;;;0.30;0.30;;;4.50;99.90;;;;;;5011561;28;20033;-73
2022/01/20 12:41:58;;;;;;;;;;;4.50;99.90;;;;;;4991217;28;20038;-73
2022/01/20 12:44:35;;;;;;;0.32;0.32;;;4.30;99.90;;;;;;4990640;28;19913;-74
2022/01/20 12:47:01;;;;;;;1.52;0.75;;;4.60;99.90;;;;;;5010930;28;20037;-73
2022/01/20 12:49:26;;;;;;;0.20;0.20;;;4.80;99.90;;;;;;5010520;28;20331;-73
2022/01/20 12:51:54;;;;;;;1.52;1.25;;;4.80;99.90;;;;;;5011872;28;20022;-73
2022/01/20 12:54:26;;;;;;;0.20;0.20;;;4.90;99.90;;;;;;5011195;28;20461;-73
2022/01/20 12:57:00;;;;;;;0.20;0.20;;;4.60;99.90;;;;;;5010773;28;20030;-73
2022/01/20 12:59:32;;;;;;;0.20;0.20;;;4.50;99.90;;;;;;5014023;28;20022;-73
2022/01/20 13:02:01;;;;;;;0.30;0.30;;;4.50;99.90;;;;;;5012280;28;20456;-74
2022/01/20 13:04:29;;;;;;;0.30;0.30;;;4.40;99.90;;;;;;5011716;28;20030;-74
2022/01/20 13:07:00;;;;;;;2.25;1.02;;;4.20;99.90;;;;;;5011030;28;20017;-73
2022/01/20 13:10:05;;;;;;;0.50;0.50;;;4.20;99.90;;;;;;5006626;28;20021;-74
2022/01/20 13:12:32;;;;;;;0.40;0.40;;;4.10;99.90;;;;;;4999040;28;20080;-73
2022/01/20 13:14:58;;;;;;;0.40;0.40;;;4.10;99.90;;;;;;5011435;28;20037;-73
2022/01/20 13:17:30;;;;;;;0.40;0.40;;;3.90;99.90;;;;;;5011926;28;20144;-73
2022/01/20 13:19:58;;;;;;;0.90;0.90;;;3.80;99.90;;;;;;4989082;28;20462;-73
2022/01/20 13:22:31;;;;;;;0.65;0.65;;;3.80;99.90;;;;;;4992786;28;20037;-73
2022/01/20 13:25:07;;;;;;;0.55;0.47;;;3.90;99.90;;;;;;5010300;28;20390;-73
2022/01/20 13:27:34;;;;;;;0.30;0.30;;;3.90;99.90;;;;;;5005623;28;20468;-74
2022/01/20 13:30:00;;;;;;;8.82;1.55;;;3.80;99.90;;;;;;5010823;28;20025;-73
2022/01/20 13:32:25;;;;;;;5.13;1.20;;;3.80;99.90;;;;;;5009690;28;20500;-73
2022/01/20 13:34:56;;;;;;;0.30;0.30;;;3.60;99.90;;;;;;5011458;28;20029;-73
2022/01/20 13:37:23;;;;;;;2.17;0.73;;;3.60;99.90;;;;;;5009657;28;20025;-73
2022/01/20 13:39:50;;;;;;;2.90;1.30;;;3.50;99.90;;;;;;5007165;28;20052;-73
2022/01/20 13:45:18;;;;;;;0.60;0.60;;;3.40;99.90;;;;;;5011774;28;20105;-74
2022/01/20 13:47:47;;;;;;;0.45;0.45;;;3.20;99.90;;;;;;5010311;28;20485;-73
2022/01/20 13:50:39;;;;;;;0.20;0.20;;;3.20;99.90;;;;;;4993783;28;20022;-73
2022/01/20 13:53:17;;;;;;;0.20;0.20;;;3.20;99.90;;;;;;5009131;28;20033;-73
2022/01/20 13:55:45;;;;;;;0.90;0.75;;;3.30;99.90;;;;;;5006185;28;20495;-73
2022/01/20 13:58:25;;;;;;;0.38;0.38;;;3.10;99.90;;;;;;5011621;28;20406;-73
2022/01/20 14:00:52;;;;;;;1.27;0.93;;;3.10;99.90;;;;;;5009664;28;20445;-73
2022/01/20 14:03:18;;;;;;;0.40;0.40;;;3.20;99.90;;;;;;5011234;28;20030;-74
2022/01/20 14:05:44;;;;;;;0.28;0.28;;;3.10;99.90;;;;;;5009926;28;20033;-73
2022/01/20 14:08:10;;;;;;;0.20;0.20;;;3.20;99.90;;;;;;4994023;28;20107;-72
2022/01/20 14:10:37;;;;;;;0.85;0.65;;;3.40;99.90;;;;;;5010368;28;20053;-72
2022/01/20 14:13:03;;;;;;;0.30;0.30;;;3.30;99.90;;;;;;5011292;28;20030;-72
2022/01/20 14:15:29;;;;;;;0.30;0.30;;;3.20;99.90;;;;;;5011340;28;20056;-73